createdAt,value
2022-10-30T00:00:51.382Z,13.12
2022-10-30T00:03:18.546Z,12.93
2022-10-30T00:05:48.284Z,13.21
2022-10-30T00:08:18.386Z,13.12
2022-10-30T00:10:46.792Z,12.95
2022-10-30T00:13:14.180Z,12.70
2022-10-30T00:15:47.228Z,12.98
2022-10-30T00:18:14.738Z,13.08
2022-10-30T00:20:41.792Z,13.11
2022-10-30T00:23:08.895Z,12.75
2022-10-30T00:25:36.388Z,12.93
2022-10-30T00:28:05.342Z,12.95
2022-10-30T00:30:33.793Z,12.93
2022-10-30T00:33:01.391Z,12.97
2022-10-30T00:35:28.711Z,12.56
2022-10-30T00:37:56.034Z,12.85
2022-10-30T00:40:24.022Z,12.43
2022-10-30T00:42:51.898Z,12.75
2022-10-30T00:45:18.973Z,12.61
2022-10-30T00:48:03.349Z,12.48
2022-10-30T00:50:35.594Z,12.76
2022-10-30T00:53:11.676Z,12.64
2022-10-30T00:55:44.722Z,12.57
2022-10-30T00:58:16.184Z,12.63
2022-10-30T01:00:48.721Z,12.16
2022-10-30T01:03:16.107Z,12.49
2022-10-30T01:05:48.739Z,12.50
2022-10-30T01:08:15.752Z,12.46
2022-10-30T01:10:43.682Z,12.48
2022-10-30T01:13:11.454Z,12.13
2022-10-30T01:15:50.244Z,12.32
2022-10-30T01:18:33.232Z,12.09
2022-10-30T01:21:08.559Z,12.17
2022-10-30T01:23:46.367Z,12.00
2022-10-30T01:26:32.948Z,11.81
2022-10-30T01:29:30.490Z,11.94
2022-10-30T01:32:20.258Z,11.92
2022-10-30T01:35:05.166Z,11.94
2022-10-30T01:38:13.467Z,11.95
2022-10-30T01:40:40.472Z,11.53
2022-10-30T01:43:09.144Z,11.85
2022-10-30T01:46:04.433Z,11.58
2022-10-30T01:48:49.872Z,11.72
2022-10-30T01:51:19.940Z,11.71
2022-10-30T01:53:58.946Z,11.66
2022-10-30T01:56:39.072Z,11.69
2022-10-30T01:59:23.285Z,11.65
2022-10-30T02:01:50.504Z,11.68
2022-10-30T02:04:17.811Z,11.48
2022-10-30T02:06:45.307Z,11.81
2022-10-30T02:09:15.545Z,11.48
2022-10-30T02:11:48.299Z,11.59
2022-10-30T02:14:21.437Z,11.47
2022-10-30T02:16:51.440Z,11.80
2022-10-30T02:19:20.331Z,11.61
2022-10-30T02:21:48.797Z,11.66
2022-10-30T02:24:15.882Z,11.33
2022-10-30T02:26:43.282Z,11.57
2022-10-30T02:29:10.271Z,11.13
2022-10-30T02:31:37.694Z,11.65
2022-10-30T02:34:05.208Z,11.28
2022-10-30T02:36:32.780Z,11.81
2022-10-30T02:39:00.131Z,11.84
2022-10-30T02:41:27.366Z,11.88
2022-10-30T02:43:54.583Z,11.87
2022-10-30T02:46:22.039Z,11.89
2022-10-30T02:48:49.209Z,11.83
2022-10-30T02:51:16.824Z,11.92
2022-10-30T02:53:45.019Z,11.90
2022-10-30T03:00:01.406Z,11.96
2022-10-30T03:02:29.356Z,11.71
2022-10-30T03:04:56.371Z,11.86
2022-10-30T03:07:23.385Z,11.76
2022-10-30T03:09:52.023Z,11.86
2022-10-30T03:12:19.033Z,11.77
2022-10-30T03:14:46.146Z,11.34
2022-10-30T03:17:13.185Z,11.23
2022-10-30T03:19:40.891Z,11.59
2022-10-30T03:22:10.223Z,11.54
2022-10-30T03:24:38.544Z,11.12
2022-10-30T03:27:06.319Z,11.48
2022-10-30T03:29:33.396Z,11.51
2022-10-30T03:32:02.265Z,11.42
2022-10-30T03:34:34.200Z,11.51
2022-10-30T03:37:05.245Z,11.17
2022-10-30T03:39:32.343Z,11.19
2022-10-30T03:41:59.390Z,11.35
2022-10-30T03:44:26.422Z,11.46
2022-10-30T03:46:54.072Z,11.48
2022-10-30T03:49:28.191Z,11.40
2022-10-30T03:51:56.517Z,11.34
2022-10-30T03:54:25.773Z,11.36
2022-10-30T03:56:52.853Z,11.39
2022-10-30T03:59:20.829Z,11.40
2022-10-30T04:02:07.041Z,11.23
2022-10-30T04:04:34.779Z,11.43
2022-10-30T04:07:01.826Z,11.16
2022-10-30T04:09:28.808Z,11.42
2022-10-30T04:11:55.878Z,11.45
2022-10-30T04:14:22.896Z,11.39
2022-10-30T04:16:50.008Z,11.28
2022-10-30T04:19:17.546Z,11.02
2022-10-30T04:21:47.717Z,11.24
2022-10-30T04:24:17.108Z,11.24
2022-10-30T04:26:45.593Z,11.05
2022-10-30T04:29:12.577Z,10.93
2022-10-30T04:31:39.591Z,11.02
2022-10-30T04:34:06.684Z,10.89
2022-10-30T04:36:34.239Z,10.65
2022-10-30T04:39:02.450Z,10.97
2022-10-30T04:41:29.773Z,10.94
2022-10-30T04:44:04.748Z,10.71
2022-10-30T04:46:33.166Z,10.92
2022-10-30T04:49:07.630Z,10.93
2022-10-30T04:51:35.728Z,10.88
2022-10-30T04:54:04.597Z,10.76
2022-10-30T04:56:32.992Z,10.52
2022-10-30T04:59:00.312Z,10.83
2022-10-30T05:01:27.549Z,10.57
2022-10-30T05:03:58.879Z,10.26
2022-10-30T05:06:30.111Z,10.49
2022-10-30T05:08:57.944Z,10.46
2022-10-30T05:11:32.997Z,10.35
2022-10-30T05:13:59.983Z,10.28
2022-10-30T05:16:27.009Z,10.26
2022-10-30T05:18:55.287Z,10.32
2022-10-30T05:21:22.352Z,10.19
2022-10-30T05:23:49.412Z,10.08
2022-10-30T05:26:16.646Z,10.39
2022-10-30T05:28:43.721Z,10.21
2022-10-30T05:31:10.818Z,9.90
2022-10-30T05:33:56.449Z,10.26
2022-10-30T05:36:25.493Z,10.22
2022-10-30T05:38:53.169Z,9.85
2022-10-30T05:41:32.030Z,9.99
2022-10-30T05:43:59.310Z,10.08
2022-10-30T05:46:26.716Z,10.10
2022-10-30T05:48:55.163Z,10.13
2022-10-30T05:51:23.245Z,9.88
2022-10-30T05:53:54.495Z,10.02
2022-10-30T05:56:25.289Z,10.13
2022-10-30T05:58:52.452Z,10.22
2022-10-30T06:01:19.601Z,10.26
2022-10-30T06:03:50.905Z,10.06
2022-10-30T06:06:17.935Z,10.18
2022-10-30T06:08:45.409Z,10.13
2022-10-30T06:11:31.307Z,10.02
2022-10-30T06:14:00.091Z,10.10
2022-10-30T06:16:40.031Z,9.81
2022-10-30T06:19:19.206Z,10.00
2022-10-30T06:21:49.148Z,9.93
2022-10-30T06:24:33.393Z,9.88
2022-10-30T06:27:19.102Z,9.87
2022-10-30T06:29:46.117Z,9.89
2022-10-30T06:32:13.144Z,9.57
2022-10-30T06:34:42.782Z,9.58
2022-10-30T06:37:10.296Z,9.87
2022-10-30T06:39:38.775Z,9.89
2022-10-30T06:42:26.122Z,9.91
2022-10-30T06:45:08.069Z,9.75
2022-10-30T06:47:36.245Z,9.97
2022-10-30T06:50:05.174Z,9.94
2022-10-30T06:52:32.273Z,9.99
2022-10-30T06:55:00.587Z,9.93
2022-10-30T06:58:05.803Z,9.91
2022-10-30T07:00:54.022Z,9.80
2022-10-30T07:03:50.065Z,9.97
2022-10-30T07:06:17.479Z,9.79
2022-10-30T07:08:44.487Z,10.00
2022-10-30T07:11:13.529Z,10.08
2022-10-30T07:13:59.077Z,9.90
2022-10-30T07:16:48.199Z,10.07
2022-10-30T07:19:15.184Z,10.30
2022-10-30T07:21:42.525Z,10.22
2022-10-30T07:24:10.541Z,10.28
2022-10-30T07:27:16.055Z,10.13
2022-10-30T07:29:50.123Z,10.39
2022-10-30T07:32:22.420Z,10.28
2022-10-30T07:34:51.815Z,10.57
2022-10-30T07:37:21.401Z,10.65
2022-10-30T07:40:12.782Z,10.61
2022-10-30T07:43:06.460Z,10.74
2022-10-30T07:45:44.732Z,10.60
2022-10-30T07:48:29.784Z,10.68
2022-10-30T07:51:04.744Z,10.66
2022-10-30T07:53:32.112Z,10.94
2022-10-30T07:55:59.622Z,11.05
2022-10-30T07:58:45.828Z,10.72
2022-10-30T08:01:31.936Z,10.97
2022-10-30T08:04:11.189Z,11.23
2022-10-30T08:06:38.565Z,11.02
2022-10-30T08:09:05.690Z,11.11
2022-10-30T08:11:33.783Z,11.52
2022-10-30T08:14:01.252Z,11.67
2022-10-30T08:16:28.433Z,11.44
2022-10-30T08:18:55.494Z,11.81
2022-10-30T08:21:25.565Z,11.84
2022-10-30T08:23:58.111Z,11.77
2022-10-30T08:26:28.161Z,11.92
2022-10-30T08:28:55.210Z,12.01
2022-10-30T08:31:24.093Z,12.12
2022-10-30T08:34:20.056Z,12.49
2022-10-30T08:36:52.491Z,12.43
2022-10-30T08:39:20.247Z,12.73
2022-10-30T08:42:05.876Z,12.54
2022-10-30T08:44:39.121Z,12.64
2022-10-30T08:47:28.192Z,13.04
2022-10-30T08:49:55.257Z,12.99
2022-10-30T08:52:25.588Z,13.18
2022-10-30T08:54:55.869Z,13.28
2022-10-30T08:57:26.214Z,13.45
2022-10-30T08:59:54.871Z,13.60
2022-10-30T09:02:40.526Z,13.47
2022-10-30T09:05:26.240Z,13.62
2022-10-30T09:08:29.072Z,14.21
2022-10-30T09:11:08.482Z,14.27
2022-10-30T09:13:35.577Z,14.58
2022-10-30T09:16:04.496Z,14.76
2022-10-30T09:18:34.712Z,14.89
2022-10-30T09:21:04.771Z,15.01
2022-10-30T09:23:36.545Z,14.96
2022-10-30T09:26:23.523Z,14.91
2022-10-30T09:28:56.009Z,14.95
2022-10-30T09:31:45.874Z,15.11
2022-10-30T09:34:17.245Z,15.24
2022-10-30T09:37:08.283Z,15.51
2022-10-30T09:39:37.799Z,15.75
2022-10-30T09:42:27.299Z,15.82
2022-10-30T09:45:27.801Z,15.93
2022-10-30T09:47:56.292Z,15.83
2022-10-30T09:50:41.454Z,15.73
2022-10-30T09:53:25.225Z,16.09
2022-10-30T09:56:12.060Z,16.07
2022-10-30T09:59:01.011Z,16.24
2022-10-30T10:01:48.832Z,16.19
2022-10-30T10:04:26.743Z,16.42
2022-10-30T10:07:19.940Z,16.59
2022-10-30T10:10:00.238Z,16.57
2022-10-30T10:12:43.829Z,16.44
2022-10-30T10:15:51.230Z,17.01
2022-10-30T10:18:28.060Z,17.13
2022-10-30T10:21:00.937Z,17.24
2022-10-30T10:23:40.742Z,17.45
2022-10-30T10:26:28.362Z,17.64
2022-10-30T10:28:58.119Z,17.72
2022-10-30T10:31:53.888Z,17.42
2022-10-30T10:34:33.192Z,17.74
2022-10-30T10:37:13.756Z,17.91
2022-10-30T10:39:49.588Z,18.02
2022-10-30T10:42:24.565Z,18.06
2022-10-30T10:45:17.678Z,17.98
2022-10-30T10:48:03.638Z,18.01
2022-10-30T10:50:38.898Z,17.77
2022-10-30T10:53:15.792Z,17.92
2022-10-30T10:55:48.701Z,18.28
2022-10-30T10:58:39.679Z,18.43
2022-10-30T11:01:14.225Z,18.57
2022-10-30T11:03:59.295Z,18.70
2022-10-30T11:06:40.472Z,18.48
2022-10-30T11:09:16.458Z,18.84
2022-10-30T11:11:44.526Z,18.88
2022-10-30T11:14:15.371Z,19.01
2022-10-30T11:17:11.794Z,19.13
2022-10-30T11:19:38.837Z,19.12
2022-10-30T11:22:30.457Z,19.54
2022-10-30T11:25:25.327Z,19.69
2022-10-30T11:27:57.693Z,19.68
2022-10-30T11:30:28.471Z,20.08
2022-10-30T11:32:57.317Z,20.03
2022-10-30T11:35:25.374Z,20.09
2022-10-30T11:38:13.646Z,20.28
2022-10-30T11:40:47.417Z,20.50
2022-10-30T11:43:20.829Z,20.62
2022-10-30T11:45:48.792Z,20.31
2022-10-30T11:48:33.199Z,20.70
2022-10-30T11:51:01.986Z,20.69
2022-10-30T11:53:36.481Z,20.64
2022-10-30T11:56:11.149Z,20.44
2022-10-30T11:58:53.849Z,20.90
2022-10-30T12:01:25.312Z,21.04
2022-10-30T12:03:54.349Z,21.01
2022-10-30T12:06:21.473Z,20.98
2022-10-30T12:09:12.361Z,20.93
2022-10-30T12:11:43.279Z,21.06
2022-10-30T12:14:20.004Z,20.81
2022-10-30T12:16:52.076Z,21.33
2022-10-30T12:19:22.660Z,21.40
2022-10-30T12:21:53.807Z,21.37
2022-10-30T12:24:32.052Z,21.53
2022-10-30T12:27:03.506Z,21.29
2022-10-30T12:30:08.802Z,21.26
2022-10-30T12:32:57.466Z,21.25
2022-10-30T12:35:41.005Z,21.43
2022-10-30T12:38:18.685Z,21.10
2022-10-30T12:41:04.092Z,20.98
2022-10-30T12:43:36.332Z,21.19
2022-10-30T12:46:21.820Z,21.01
2022-10-30T12:48:56.199Z,21.07
2022-10-30T12:51:39.477Z,21.24
2022-10-30T12:54:30.909Z,21.14
2022-10-30T12:57:18.845Z,21.23
2022-10-30T12:59:57.597Z,21.20
2022-10-30T13:02:52.744Z,21.31
2022-10-30T13:05:29.326Z,21.50
2022-10-30T13:08:20.402Z,21.29
2022-10-30T13:10:54.234Z,21.38
2022-10-30T13:13:41.137Z,21.68
2022-10-30T13:16:19.923Z,21.60
2022-10-30T13:18:47.041Z,21.52
2022-10-30T13:21:50.714Z,21.73
2022-10-30T13:24:43.562Z,21.62
2022-10-30T13:27:19.789Z,21.86
2022-10-30T13:30:03.613Z,21.88
2022-10-30T13:32:55.270Z,21.93
2022-10-30T13:35:22.548Z,21.81
2022-10-30T13:38:01.693Z,21.90
2022-10-30T13:40:38.229Z,22.06
2022-10-30T13:43:38.585Z,22.20
2022-10-30T13:46:42.460Z,22.23
2022-10-30T13:49:31.750Z,22.59
2022-10-30T13:52:10.194Z,22.62
2022-10-30T13:55:02.093Z,22.73
2022-10-30T13:57:43.599Z,22.68
2022-10-30T14:00:19.503Z,22.40
2022-10-30T14:03:21.901Z,22.39
2022-10-30T14:06:02.651Z,22.20
2022-10-30T14:08:57.627Z,22.02
2022-10-30T14:11:24.678Z,21.83
2022-10-30T14:14:23.995Z,21.82
2022-10-30T14:17:13.899Z,22.03
2022-10-30T14:20:12.550Z,21.99
2022-10-30T14:22:41.298Z,21.79
2022-10-30T14:25:17.424Z,21.69
2022-10-30T14:27:55.833Z,21.72
2022-10-30T14:30:23.094Z,21.64
2022-10-30T14:32:52.215Z,21.73
2022-10-30T14:35:37.453Z,21.14
2022-10-30T14:38:10.445Z,21.58
2022-10-30T14:40:45.165Z,21.54
2022-10-30T14:43:29.007Z,21.15
2022-10-30T14:46:03.757Z,21.56
2022-10-30T14:48:49.748Z,20.94
2022-10-30T14:51:23.069Z,21.14
2022-10-30T14:54:02.029Z,21.38
2022-10-30T14:56:49.365Z,21.12
2022-10-30T14:59:16.283Z,21.21
2022-10-30T15:02:38.048Z,21.12
2022-10-30T15:05:30.621Z,21.03
2022-10-30T15:08:21.909Z,20.85
2022-10-30T15:11:02.741Z,20.80
2022-10-30T15:13:29.829Z,20.50
2022-10-30T15:16:07.359Z,20.61
2022-10-30T15:18:34.665Z,20.75
2022-10-30T15:21:05.786Z,20.76
2022-10-30T15:23:35.545Z,20.63
2022-10-30T15:26:09.744Z,20.56
2022-10-30T15:28:38.663Z,20.32
2022-10-30T15:31:25.770Z,20.50
2022-10-30T15:34:00.031Z,20.42
2022-10-30T15:36:35.611Z,20.27
2022-10-30T15:39:03.743Z,20.17
2022-10-30T15:41:31.418Z,20.06
2022-10-30T15:43:59.002Z,19.90
2022-10-30T15:46:26.673Z,19.78
2022-10-30T15:48:53.863Z,19.63
2022-10-30T15:51:23.047Z,19.49
2022-10-30T15:53:54.047Z,19.26
2022-10-30T15:57:17.975Z,18.97
2022-10-30T15:59:35.534Z,18.61
2022-10-30T16:02:02.686Z,18.59
2022-10-30T16:04:36.472Z,18.22
2022-10-30T16:07:17.428Z,18.19
2022-10-30T16:09:57.947Z,18.01
2022-10-30T16:12:34.324Z,17.46
2022-10-30T16:15:08.712Z,17.79
2022-10-30T16:17:35.769Z,17.73
2022-10-30T16:20:04.280Z,17.69
2022-10-30T16:22:37.947Z,17.59
2022-10-30T16:25:12.785Z,17.55
2022-10-30T16:27:44.762Z,17.13
2022-10-30T16:30:16.673Z,17.46
2022-10-30T16:32:55.296Z,17.27
2022-10-30T16:35:24.305Z,17.36
2022-10-30T16:37:51.708Z,17.31
2022-10-30T16:40:28.404Z,17.23
2022-10-30T16:42:58.446Z,16.99
2022-10-30T16:45:29.020Z,17.12
2022-10-30T16:48:05.893Z,17.04
2022-10-30T16:50:38.012Z,16.91
2022-10-30T16:53:07.308Z,16.88
2022-10-30T16:55:38.469Z,16.87
2022-10-30T16:58:05.525Z,16.71
2022-10-30T17:00:36.362Z,16.26
2022-10-30T17:03:10.542Z,16.39
2022-10-30T17:05:38.550Z,16.57
2022-10-30T17:08:26.718Z,16.51
2022-10-30T17:11:00.058Z,16.42
2022-10-30T17:13:35.735Z,16.23
2022-10-30T17:16:24.989Z,16.27
2022-10-30T17:18:57.381Z,16.23
2022-10-30T17:21:38.348Z,16.06
2022-10-30T17:24:06.105Z,15.73
2022-10-30T17:26:41.281Z,15.87
2022-10-30T17:29:37.401Z,15.80
2022-10-30T17:32:14.727Z,15.76
2022-10-30T17:34:41.717Z,15.66
2022-10-30T17:37:08.691Z,15.56
2022-10-30T17:39:35.664Z,15.44
2022-10-30T17:42:02.863Z,15.44
2022-10-30T17:44:33.029Z,15.12
2022-10-30T17:47:00.745Z,15.01
2022-10-30T17:49:32.176Z,15.16
2022-10-30T17:51:59.580Z,15.03
2022-10-30T17:54:26.644Z,15.17
2022-10-30T17:56:54.276Z,15.08
2022-10-30T17:59:21.347Z,15.06
2022-10-30T18:01:49.148Z,14.75
2022-10-30T18:04:21.147Z,14.92
2022-10-30T18:06:49.304Z,14.85
2022-10-30T18:09:16.451Z,14.70
2022-10-30T18:11:43.565Z,14.55
2022-10-30T18:14:11.669Z,14.36
2022-10-30T18:16:39.191Z,14.29
2022-10-30T18:19:10.008Z,14.62
2022-10-30T18:21:37.717Z,14.29
2022-10-30T18:24:11.126Z,14.38
2022-10-30T18:26:40.742Z,14.05
2022-10-30T18:29:09.398Z,14.06
2022-10-30T18:31:37.565Z,13.97
2022-10-30T18:34:04.717Z,14.21
2022-10-30T18:36:31.820Z,14.03
2022-10-30T18:38:58.792Z,14.13
2022-10-30T18:41:37.910Z,13.49
2022-10-30T18:44:05.253Z,13.94
2022-10-30T18:46:33.602Z,13.95
2022-10-30T18:49:00.968Z,13.74
2022-10-30T18:51:28.899Z,13.85
2022-10-30T18:53:56.929Z,13.70
2022-10-30T18:56:29.566Z,13.84
2022-10-30T18:59:02.064Z,13.67
2022-10-30T19:01:33.004Z,13.68
2022-10-30T19:04:02.144Z,13.70
2022-10-30T19:06:29.380Z,13.69
2022-10-30T19:08:56.441Z,13.24
2022-10-30T19:11:25.322Z,13.31
2022-10-30T19:13:54.198Z,13.46
2022-10-30T19:16:24.372Z,13.40
2022-10-30T19:18:52.453Z,13.33
2022-10-30T19:21:25.716Z,13.23
2022-10-30T19:23:54.581Z,13.19
2022-10-30T19:26:21.746Z,13.10
2022-10-30T19:28:48.780Z,12.95
2022-10-30T19:31:17.795Z,13.01
2022-10-30T19:33:45.867Z,12.86
2022-10-30T19:36:34.391Z,12.98
2022-10-30T19:39:08.624Z,12.94
2022-10-30T19:41:36.943Z,12.57
2022-10-30T19:44:04.407Z,12.87
2022-10-30T19:46:31.433Z,12.85
2022-10-30T19:48:59.556Z,12.83
2022-10-30T19:51:28.637Z,12.81
2022-10-30T19:53:55.951Z,12.83
2022-10-30T19:56:23.455Z,12.79
2022-10-30T19:58:50.547Z,12.70
2022-10-30T20:01:17.896Z,12.79
2022-10-30T20:03:45.017Z,12.51
2022-10-30T20:06:12.961Z,12.48
2022-10-30T20:08:40.623Z,12.60
2022-10-30T20:11:07.831Z,12.54
2022-10-30T20:13:35.168Z,12.41
2022-10-30T20:16:04.789Z,12.47
2022-10-30T20:18:34.759Z,12.38
2022-10-30T20:21:05.577Z,12.34
2022-10-30T20:23:32.576Z,12.26
2022-10-30T20:26:02.456Z,12.14
2022-10-30T20:28:40.224Z,12.17
2022-10-30T20:31:10.694Z,12.16
2022-10-30T20:33:37.878Z,11.90
2022-10-30T20:36:05.375Z,11.98
2022-10-30T20:38:33.734Z,11.82
2022-10-30T20:41:03.227Z,11.98
2022-10-30T20:43:35.742Z,11.73
2022-10-30T20:46:06.835Z,11.94
2022-10-30T20:48:33.923Z,11.90
2022-10-30T20:51:02.008Z,11.54
2022-10-30T20:53:29.460Z,11.82
2022-10-30T20:55:56.826Z,11.47
2022-10-30T20:58:24.565Z,11.85
2022-10-30T21:00:54.406Z,11.78
2022-10-30T21:03:21.467Z,11.54
2022-10-30T21:05:55.775Z,11.76
2022-10-30T21:08:22.871Z,11.73
2022-10-30T21:10:50.016Z,11.59
2022-10-30T21:13:17.022Z,11.71
2022-10-30T21:15:44.909Z,11.72
2022-10-30T21:18:13.019Z,11.73
2022-10-30T21:20:41.194Z,11.75
2022-10-30T21:23:08.622Z,11.69
2022-10-30T21:25:36.090Z,11.26
2022-10-30T21:28:03.293Z,11.24
2022-10-30T21:30:30.582Z,11.52
2022-10-30T21:32:59.063Z,11.54
2022-10-30T21:35:27.486Z,11.23
2022-10-30T21:37:54.485Z,11.50
2022-10-30T21:40:21.688Z,11.19
2022-10-30T21:42:48.797Z,11.34
2022-10-30T21:45:16.242Z,11.43
2022-10-30T21:47:43.270Z,11.41
2022-10-30T21:50:12.741Z,11.08
2022-10-30T21:52:40.630Z,11.18
2022-10-30T21:55:08.360Z,11.28
2022-10-30T21:57:35.663Z,11.29
2022-10-30T22:00:05.855Z,11.25
2022-10-30T22:02:35.501Z,11.32
2022-10-30T22:05:02.577Z,11.08
2022-10-30T22:07:29.650Z,11.38
2022-10-30T22:09:57.011Z,11.14
2022-10-30T22:12:24.010Z,11.26
2022-10-30T22:14:51.006Z,11.22
2022-10-30T22:17:17.977Z,11.11
2022-10-30T22:19:45.016Z,11.08
2022-10-30T22:22:12.080Z,11.08
2022-10-30T22:24:39.079Z,11.06
2022-10-30T22:27:06.114Z,10.80
2022-10-30T22:29:33.129Z,11.05
2022-10-30T22:32:00.127Z,10.71
2022-10-30T22:34:27.124Z,10.96
2022-10-30T22:36:54.121Z,10.92
2022-10-30T22:39:21.277Z,10.89
2022-10-30T22:41:48.260Z,10.89
2022-10-30T22:44:18.512Z,10.87
2022-10-30T22:46:45.922Z,10.67
2022-10-30T22:49:13.030Z,10.80
2022-10-30T22:51:40.308Z,10.80
2022-10-30T22:54:11.066Z,10.78
2022-10-30T22:56:39.489Z,10.55
2022-10-30T22:59:10.148Z,10.54
2022-10-30T23:01:38.936Z,10.67
2022-10-30T23:04:07.437Z,10.72
2022-10-30T23:06:36.007Z,10.31
2022-10-30T23:09:07.089Z,10.57
2022-10-30T23:11:34.400Z,10.49
2022-10-30T23:14:01.783Z,10.39
2022-10-30T23:16:29.352Z,10.30
2022-10-30T23:18:58.012Z,10.23
2022-10-30T23:21:27.467Z,10.41
2022-10-30T23:23:54.891Z,10.40
2022-10-30T23:26:27.827Z,10.37
2022-10-30T23:28:55.728Z,10.28
2022-10-30T23:31:30.110Z,10.30
2022-10-30T23:33:59.121Z,10.26
2022-10-30T23:36:26.974Z,10.19
2022-10-30T23:38:55.713Z,10.20
2022-10-30T23:41:25.661Z,10.16
2022-10-30T23:43:57.677Z,9.75
2022-10-30T23:46:24.878Z,9.84
2022-10-30T23:48:52.328Z,9.72
2022-10-30T23:51:19.780Z,10.06
2022-10-30T23:53:47.355Z,9.61
2022-10-30T23:56:15.153Z,10.11
2022-10-30T23:58:46.977Z,9.88
